Terminal Aerodrome Forecast
Issued by NWS Tampa Bay Area, FL

Home | Current Version | Previous Version | Text Only | Print | Product List | Glossary On
Versions: 1 2 3 4 5 6 7 8 9 10 11 12 13
000
FTUS42 KTBW 232300
TAFSRQ
TAF
KSRQ 232337Z 2400/2424 29008KT P6SM SCT040 BKN250
     FM240100 VRB03KT P6SM SCT250
     FM241500 24006KT P6SM FEW050 SCT250
     FM241800 25009KT P6SM VCTS BKN040CB BKN250=

USA.gov is the U.S. government's official web portal to all federal, state and local government web resources and services.